sensor_id;sensor_type;location;lat;lon;timestamp;P1;durP1;ratioP1;P2;durP2;ratioP2
13439;SDS011;6792;57.698;11.946;2023-12-04T00:00:07;6.50;;;4.03;;
13439;SDS011;6792;57.698;11.946;2023-12-04T00:02:38;7.17;;;4.30;;
13439;SDS011;6792;57.698;11.946;2023-12-04T00:05:11;5.90;;;3.87;;
13439;SDS011;6792;57.698;11.946;2023-12-04T00:07:41;5.33;;;3.77;;
13439;SDS011;6792;57.698;11.946;2023-12-04T00:10:10;5.77;;;3.63;;
13439;SDS011;6792;57.698;11.946;2023-12-04T00:12:41;4.93;;;3.50;;
13439;SDS011;6792;57.698;11.946;2023-12-04T00:15:10;4.13;;;3.07;;
13439;SDS011;6792;57.698;11.946;2023-12-04T00:17:40;4.17;;;3.27;;
13439;SDS011;6792;57.698;11.946;2023-12-04T00:20:09;6.13;;;3.50;;
13439;SDS011;6792;57.698;11.946;2023-12-04T00:22:38;5.30;;;3.50;;
13439;SDS011;6792;57.698;11.946;2023-12-04T00:25:08;7.43;;;4.43;;
13439;SDS011;6792;57.698;11.946;2023-12-04T00:27:37;4.80;;;3.30;;
13439;SDS011;6792;57.698;11.946;2023-12-04T00:30:07;3.77;;;2.93;;
13439;SDS011;6792;57.698;11.946;2023-12-04T00:32:37;4.57;;;3.07;;
13439;SDS011;6792;57.698;11.946;2023-12-04T00:35:07;5.63;;;3.80;;
13439;SDS011;6792;57.698;11.946;2023-12-04T00:37:40;4.93;;;3.03;;
13439;SDS011;6792;57.698;11.946;2023-12-04T00:40:10;3.77;;;2.90;;
13439;SDS011;6792;57.698;11.946;2023-12-04T00:42:41;4.40;;;2.97;;
13439;SDS011;6792;57.698;11.946;2023-12-04T00:45:10;3.97;;;3.10;;
13439;SDS011;6792;57.698;11.946;2023-12-04T00:47:39;5.07;;;3.07;;
13439;SDS011;6792;57.698;11.946;2023-12-04T00:50:10;3.90;;;2.70;;
13439;SDS011;6792;57.698;11.946;2023-12-04T00:52:39;4.67;;;2.97;;
13439;SDS011;6792;57.698;11.946;2023-12-04T00:55:08;3.47;;;2.60;;
13439;SDS011;6792;57.698;11.946;2023-12-04T00:57:37;2.90;;;2.60;;
13439;SDS011;6792;57.698;11.946;2023-12-04T01:00:09;3.80;;;2.70;;
13439;SDS011;6792;57.698;11.946;2023-12-04T01:02:40;3.20;;;2.17;;
13439;SDS011;6792;57.698;11.946;2023-12-04T01:05:12;2.90;;;2.40;;
13439;SDS011;6792;57.698;11.946;2023-12-04T01:07:43;3.60;;;2.67;;
13439;SDS011;6792;57.698;11.946;2023-12-04T01:10:12;2.90;;;2.27;;
13439;SDS011;6792;57.698;11.946;2023-12-04T01:12:41;2.77;;;2.13;;
13439;SDS011;6792;57.698;11.946;2023-12-04T01:15:10;4.83;;;2.57;;
13439;SDS011;6792;57.698;11.946;2023-12-04T01:17:39;3.03;;;2.40;;
13439;SDS011;6792;57.698;11.946;2023-12-04T01:20:09;5.27;;;3.20;;
13439;SDS011;6792;57.698;11.946;2023-12-04T01:22:39;3.20;;;2.50;;
13439;SDS011;6792;57.698;11.946;2023-12-04T01:25:09;2.23;;;2.00;;
13439;SDS011;6792;57.698;11.946;2023-12-04T01:27:38;2.47;;;2.10;;
13439;SDS011;6792;57.698;11.946;2023-12-04T01:30:08;2.40;;;1.90;;
13439;SDS011;6792;57.698;11.946;2023-12-04T01:32:40;3.57;;;2.30;;
13439;SDS011;6792;57.698;11.946;2023-12-04T01:35:10;4.90;;;2.80;;
13439;SDS011;6792;57.698;11.946;2023-12-04T01:37:42;4.80;;;2.07;;
13439;SDS011;6792;57.698;11.946;2023-12-04T01:40:12;3.57;;;2.20;;
13439;SDS011;6792;57.698;11.946;2023-12-04T01:42:42;2.57;;;1.90;;
13439;SDS011;6792;57.698;11.946;2023-12-04T01:45:11;2.00;;;1.80;;
13439;SDS011;6792;57.698;11.946;2023-12-04T01:47:40;3.37;;;2.10;;
13439;SDS011;6792;57.698;11.946;2023-12-04T01:50:10;1.77;;;1.60;;
13439;SDS011;6792;57.698;11.946;2023-12-04T01:52:39;3.73;;;2.57;;
13439;SDS011;6792;57.698;11.946;2023-12-04T01:55:09;2.00;;;1.80;;
13439;SDS011;6792;57.698;11.946;2023-12-04T01:57:38;2.83;;;2.23;;
13439;SDS011;6792;57.698;11.946;2023-12-04T02:00:10;3.00;;;2.10;;
13439;SDS011;6792;57.698;11.946;2023-12-04T02:02:41;2.30;;;1.87;;
13439;SDS011;6792;57.698;11.946;2023-12-04T02:05:13;3.43;;;2.10;;
13439;SDS011;6792;57.698;11.946;2023-12-04T02:07:43;3.43;;;1.67;;
13439;SDS011;6792;57.698;11.946;2023-12-04T02:10:12;2.93;;;2.00;;
13439;SDS011;6792;57.698;11.946;2023-12-04T02:12:41;2.87;;;2.23;;
13439;SDS011;6792;57.698;11.946;2023-12-04T02:15:10;2.60;;;1.93;;
13439;SDS011;6792;57.698;11.946;2023-12-04T02:17:40;2.63;;;1.83;;
13439;SDS011;6792;57.698;11.946;2023-12-04T02:20:10;2.87;;;2.17;;
13439;SDS011;6792;57.698;11.946;2023-12-04T02:22:41;2.63;;;1.97;;
13439;SDS011;6792;57.698;11.946;2023-12-04T02:25:10;2.53;;;2.00;;
13439;SDS011;6792;57.698;11.946;2023-12-04T02:27:40;4.40;;;2.50;;
13439;SDS011;6792;57.698;11.946;2023-12-04T02:30:12;3.07;;;2.10;;
13439;SDS011;6792;57.698;11.946;2023-12-04T02:32:44;2.20;;;1.80;;
13439;SDS011;6792;57.698;11.946;2023-12-04T02:35:15;4.17;;;2.03;;
13439;SDS011;6792;57.698;11.946;2023-12-04T02:37:46;3.47;;;1.87;;
13439;SDS011;6792;57.698;11.946;2023-12-04T02:40:16;2.20;;;1.93;;
13439;SDS011;6792;57.698;11.946;2023-12-04T02:42:45;1.80;;;1.63;;
13439;SDS011;6792;57.698;11.946;2023-12-04T02:45:14;3.00;;;1.90;;
13439;SDS011;6792;57.698;11.946;2023-12-04T02:47:43;2.20;;;1.87;;
13439;SDS011;6792;57.698;11.946;2023-12-04T02:50:12;2.20;;;1.70;;
13439;SDS011;6792;57.698;11.946;2023-12-04T02:52:41;2.17;;;1.53;;
13439;SDS011;6792;57.698;11.946;2023-12-04T02:55:10;2.77;;;1.80;;
13439;SDS011;6792;57.698;11.946;2023-12-04T02:57:39;2.57;;;1.93;;
13439;SDS011;6792;57.698;11.946;2023-12-04T03:00:10;1.70;;;1.40;;
13439;SDS011;6792;57.698;11.946;2023-12-04T03:02:40;3.50;;;2.23;;
13439;SDS011;6792;57.698;11.946;2023-12-04T03:05:15;2.93;;;1.87;;
13439;SDS011;6792;57.698;11.946;2023-12-04T03:07:43;2.33;;;1.60;;
13439;SDS011;6792;57.698;11.946;2023-12-04T03:10:12;2.23;;;1.67;;
13439;SDS011;6792;57.698;11.946;2023-12-04T03:12:42;1.90;;;1.60;;
13439;SDS011;6792;57.698;11.946;2023-12-04T03:15:11;1.73;;;1.63;;
13439;SDS011;6792;57.698;11.946;2023-12-04T03:17:40;2.13;;;1.60;;
13439;SDS011;6792;57.698;11.946;2023-12-04T03:20:11;1.70;;;1.60;;
13439;SDS011;6792;57.698;11.946;2023-12-04T03:22:40;2.47;;;1.90;;
13439;SDS011;6792;57.698;11.946;2023-12-04T03:25:09;2.07;;;1.83;;
13439;SDS011;6792;57.698;11.946;2023-12-04T03:27:39;2.13;;;1.90;;
13439;SDS011;6792;57.698;11.946;2023-12-04T03:30:09;2.23;;;2.03;;
13439;SDS011;6792;57.698;11.946;2023-12-04T03:32:38;2.27;;;1.93;;
13439;SDS011;6792;57.698;11.946;2023-12-04T03:35:08;1.93;;;1.67;;
13439;SDS011;6792;57.698;11.946;2023-12-04T03:37:37;2.13;;;1.63;;
13439;SDS011;6792;57.698;11.946;2023-12-04T03:40:07;2.57;;;2.10;;
13439;SDS011;6792;57.698;11.946;2023-12-04T03:42:37;3.00;;;1.90;;
13439;SDS011;6792;57.698;11.946;2023-12-04T03:45:10;2.90;;;1.80;;
13439;SDS011;6792;57.698;11.946;2023-12-04T03:47:40;1.60;;;1.47;;
13439;SDS011;6792;57.698;11.946;2023-12-04T03:50:09;2.43;;;1.80;;
13439;SDS011;6792;57.698;11.946;2023-12-04T03:52:38;1.50;;;1.33;;
13439;SDS011;6792;57.698;11.946;2023-12-04T03:55:08;1.67;;;1.23;;
13439;SDS011;6792;57.698;11.946;2023-12-04T03:57:37;1.87;;;1.50;;
13439;SDS011;6792;57.698;11.946;2023-12-04T04:00:08;1.80;;;1.50;;
13439;SDS011;6792;57.698;11.946;2023-12-04T04:02:39;2.37;;;1.57;;
13439;SDS011;6792;57.698;11.946;2023-12-04T04:05:10;4.30;;;2.33;;
13439;SDS011;6792;57.698;11.946;2023-12-04T04:07:41;2.80;;;1.63;;
13439;SDS011;6792;57.698;11.946;2023-12-04T04:10:10;1.80;;;1.63;;
13439;SDS011;6792;57.698;11.946;2023-12-04T04:12:39;2.67;;;1.57;;
13439;SDS011;6792;57.698;11.946;2023-12-04T04:15:11;3.23;;;2.07;;
13439;SDS011;6792;57.698;11.946;2023-12-04T04:17:42;2.43;;;1.83;;
13439;SDS011;6792;57.698;11.946;2023-12-04T04:20:12;2.77;;;2.07;;
13439;SDS011;6792;57.698;11.946;2023-12-04T04:22:41;1.93;;;1.77;;
13439;SDS011;6792;57.698;11.946;2023-12-04T04:25:10;2.03;;;1.73;;
13439;SDS011;6792;57.698;11.946;2023-12-04T04:27:39;2.90;;;2.10;;
13439;SDS011;6792;57.698;11.946;2023-12-04T04:30:09;1.60;;;1.50;;
13439;SDS011;6792;57.698;11.946;2023-12-04T04:32:39;1.83;;;1.50;;
13439;SDS011;6792;57.698;11.946;2023-12-04T04:35:09;2.03;;;1.67;;
13439;SDS011;6792;57.698;11.946;2023-12-04T04:37:38;3.67;;;1.90;;
13439;SDS011;6792;57.698;11.946;2023-12-04T04:40:08;1.80;;;1.40;;
13439;SDS011;6792;57.698;11.946;2023-12-04T04:42:40;3.17;;;1.80;;
13439;SDS011;6792;57.698;11.946;2023-12-04T04:45:12;2.80;;;1.73;;
13439;SDS011;6792;57.698;11.946;2023-12-04T04:47:43;2.23;;;1.63;;
13439;SDS011;6792;57.698;11.946;2023-12-04T04:50:13;2.03;;;1.83;;
13439;SDS011;6792;57.698;11.946;2023-12-04T04:52:42;2.57;;;2.00;;
13439;SDS011;6792;57.698;11.946;2023-12-04T04:55:11;1.80;;;1.53;;
13439;SDS011;6792;57.698;11.946;2023-12-04T04:57:40;2.00;;;1.30;;
13439;SDS011;6792;57.698;11.946;2023-12-04T05:00:10;1.70;;;1.50;;
13439;SDS011;6792;57.698;11.946;2023-12-04T05:02:40;1.77;;;1.50;;
13439;SDS011;6792;57.698;11.946;2023-12-04T05:05:09;1.60;;;1.50;;
13439;SDS011;6792;57.698;11.946;2023-12-04T05:07:39;1.80;;;1.40;;
13439;SDS011;6792;57.698;11.946;2023-12-04T05:10:09;1.97;;;1.40;;
13439;SDS011;6792;57.698;11.946;2023-12-04T05:12:38;1.47;;;1.20;;
13439;SDS011;6792;57.698;11.946;2023-12-04T05:15:13;2.23;;;1.73;;
13439;SDS011;6792;57.698;11.946;2023-12-04T05:17:42;2.00;;;1.50;;
13439;SDS011;6792;57.698;11.946;2023-12-04T05:20:11;1.57;;;1.30;;
13439;SDS011;6792;57.698;11.946;2023-12-04T05:22:41;3.40;;;1.80;;
13439;SDS011;6792;57.698;11.946;2023-12-04T05:25:10;1.60;;;1.50;;
13439;SDS011;6792;57.698;11.946;2023-12-04T05:27:38;3.20;;;1.80;;
13439;SDS011;6792;57.698;11.946;2023-12-04T05:30:09;1.77;;;1.67;;
13439;SDS011;6792;57.698;11.946;2023-12-04T05:32:39;2.00;;;1.57;;
13439;SDS011;6792;57.698;11.946;2023-12-04T05:35:08;2.43;;;1.57;;
13439;SDS011;6792;57.698;11.946;2023-12-04T05:37:37;2.77;;;2.03;;
13439;SDS011;6792;57.698;11.946;2023-12-04T05:40:08;2.90;;;1.70;;
13439;SDS011;6792;57.698;11.946;2023-12-04T05:42:39;3.03;;;1.87;;
13439;SDS011;6792;57.698;11.946;2023-12-04T05:45:12;2.40;;;1.70;;
13439;SDS011;6792;57.698;11.946;2023-12-04T05:47:43;3.63;;;2.13;;
13439;SDS011;6792;57.698;11.946;2023-12-04T05:50:12;2.57;;;2.30;;
13439;SDS011;6792;57.698;11.946;2023-12-04T05:52:42;2.40;;;2.10;;
13439;SDS011;6792;57.698;11.946;2023-12-04T05:55:11;1.93;;;1.77;;
13439;SDS011;6792;57.698;11.946;2023-12-04T05:57:40;1.97;;;1.73;;
13439;SDS011;6792;57.698;11.946;2023-12-04T06:00:10;2.67;;;1.80;;
13439;SDS011;6792;57.698;11.946;2023-12-04T06:02:41;3.30;;;1.97;;
13439;SDS011;6792;57.698;11.946;2023-12-04T06:05:11;3.00;;;2.10;;
13439;SDS011;6792;57.698;11.946;2023-12-04T06:07:40;2.87;;;2.10;;
13439;SDS011;6792;57.698;11.946;2023-12-04T06:10:10;2.13;;;1.93;;
13439;SDS011;6792;57.698;11.946;2023-12-04T06:12:39;2.83;;;1.77;;
13439;SDS011;6792;57.698;11.946;2023-12-04T06:15:10;2.23;;;2.00;;
13439;SDS011;6792;57.698;11.946;2023-12-04T06:17:41;2.40;;;1.90;;
13439;SDS011;6792;57.698;11.946;2023-12-04T06:20:11;2.73;;;1.90;;
13439;SDS011;6792;57.698;11.946;2023-12-04T06:22:41;2.97;;;1.93;;
13439;SDS011;6792;57.698;11.946;2023-12-04T06:25:12;2.23;;;1.90;;
13439;SDS011;6792;57.698;11.946;2023-12-04T06:27:43;1.83;;;1.60;;
13439;SDS011;6792;57.698;11.946;2023-12-04T06:30:14;3.43;;;1.97;;
13439;SDS011;6792;57.698;11.946;2023-12-04T06:32:45;1.77;;;1.60;;
13439;SDS011;6792;57.698;11.946;2023-12-04T06:35:16;2.40;;;1.97;;
13439;SDS011;6792;57.698;11.946;2023-12-04T06:37:47;2.13;;;1.93;;
13439;SDS011;6792;57.698;11.946;2023-12-04T06:40:20;3.17;;;2.30;;
13439;SDS011;6792;57.698;11.946;2023-12-04T06:42:51;3.17;;;1.90;;
13439;SDS011;6792;57.698;11.946;2023-12-04T06:45:21;2.53;;;2.30;;
13439;SDS011;6792;57.698;11.946;2023-12-04T06:47:51;3.77;;;2.33;;
13439;SDS011;6792;57.698;11.946;2023-12-04T06:50:21;2.13;;;1.77;;
13439;SDS011;6792;57.698;11.946;2023-12-04T06:52:50;2.40;;;1.77;;
13439;SDS011;6792;57.698;11.946;2023-12-04T06:55:19;2.43;;;1.50;;
13439;SDS011;6792;57.698;11.946;2023-12-04T06:57:48;2.07;;;1.63;;
13439;SDS011;6792;57.698;11.946;2023-12-04T07:00:18;2.27;;;1.83;;
13439;SDS011;6792;57.698;11.946;2023-12-04T07:02:48;2.40;;;1.60;;
13439;SDS011;6792;57.698;11.946;2023-12-04T07:05:18;2.73;;;2.03;;
13439;SDS011;6792;57.698;11.946;2023-12-04T07:07:48;2.97;;;2.07;;
13439;SDS011;6792;57.698;11.946;2023-12-04T07:10:17;2.87;;;2.30;;
13439;SDS011;6792;57.698;11.946;2023-12-04T07:12:46;2.43;;;2.17;;
13439;SDS011;6792;57.698;11.946;2023-12-04T07:15:15;3.70;;;1.90;;
13439;SDS011;6792;57.698;11.946;2023-12-04T07:17:44;3.10;;;1.97;;
13439;SDS011;6792;57.698;11.946;2023-12-04T07:20:13;2.00;;;1.80;;
13439;SDS011;6792;57.698;11.946;2023-12-04T07:22:42;3.87;;;1.83;;
13439;SDS011;6792;57.698;11.946;2023-12-04T07:25:13;3.53;;;1.90;;
13439;SDS011;6792;57.698;11.946;2023-12-04T07:27:43;2.50;;;1.80;;
13439;SDS011;6792;57.698;11.946;2023-12-04T07:30:13;5.43;;;2.57;;
13439;SDS011;6792;57.698;11.946;2023-12-04T07:32:43;4.77;;;3.10;;
13439;SDS011;6792;57.698;11.946;2023-12-04T07:35:13;4.63;;;2.57;;
13439;SDS011;6792;57.698;11.946;2023-12-04T07:37:43;3.53;;;2.17;;
13439;SDS011;6792;57.698;11.946;2023-12-04T07:40:13;2.67;;;1.97;;
13439;SDS011;6792;57.698;11.946;2023-12-04T07:42:42;5.13;;;1.87;;
13439;SDS011;6792;57.698;11.946;2023-12-04T07:45:11;4.00;;;2.00;;
13439;SDS011;6792;57.698;11.946;2023-12-04T07:47:42;2.43;;;1.70;;
13439;SDS011;6792;57.698;11.946;2023-12-04T07:50:11;2.23;;;1.77;;
13439;SDS011;6792;57.698;11.946;2023-12-04T07:52:40;2.80;;;1.67;;
13439;SDS011;6792;57.698;11.946;2023-12-04T07:55:12;3.40;;;1.80;;
13439;SDS011;6792;57.698;11.946;2023-12-04T07:57:41;2.20;;;1.87;;
13439;SDS011;6792;57.698;11.946;2023-12-04T08:00:11;2.67;;;1.77;;
13439;SDS011;6792;57.698;11.946;2023-12-04T08:02:41;4.03;;;1.70;;
13439;SDS011;6792;57.698;11.946;2023-12-04T08:05:11;2.10;;;1.80;;
13439;SDS011;6792;57.698;11.946;2023-12-04T08:07:40;3.63;;;1.60;;
13439;SDS011;6792;57.698;11.946;2023-12-04T08:10:09;3.27;;;1.90;;
13439;SDS011;6792;57.698;11.946;2023-12-04T08:12:39;1.97;;;1.50;;
13439;SDS011;6792;57.698;11.946;2023-12-04T08:15:10;2.90;;;1.90;;
13439;SDS011;6792;57.698;11.946;2023-12-04T08:17:39;2.73;;;2.20;;
13439;SDS011;6792;57.698;11.946;2023-12-04T08:20:09;2.10;;;1.63;;
13439;SDS011;6792;57.698;11.946;2023-12-04T08:22:40;2.13;;;1.90;;
13439;SDS011;6792;57.698;11.946;2023-12-04T08:25:13;2.43;;;1.80;;
13439;SDS011;6792;57.698;11.946;2023-12-04T08:27:43;2.33;;;1.67;;
13439;SDS011;6792;57.698;11.946;2023-12-04T08:30:12;1.87;;;1.60;;
13439;SDS011;6792;57.698;11.946;2023-12-04T08:32:42;1.80;;;1.70;;
13439;SDS011;6792;57.698;11.946;2023-12-04T08:35:11;3.37;;;2.10;;
13439;SDS011;6792;57.698;11.946;2023-12-04T08:37:41;3.03;;;1.90;;
13439;SDS011;6792;57.698;11.946;2023-12-04T08:40:11;2.70;;;1.77;;
13439;SDS011;6792;57.698;11.946;2023-12-04T08:42:40;2.60;;;1.73;;
13439;SDS011;6792;57.698;11.946;2023-12-04T08:45:10;3.03;;;2.00;;
13439;SDS011;6792;57.698;11.946;2023-12-04T08:47:39;3.87;;;1.93;;
13439;SDS011;6792;57.698;11.946;2023-12-04T08:50:08;2.67;;;1.70;;
13439;SDS011;6792;57.698;11.946;2023-12-04T08:52:37;2.63;;;1.70;;
13439;SDS011;6792;57.698;11.946;2023-12-04T08:55:14;3.40;;;1.50;;
13439;SDS011;6792;57.698;11.946;2023-12-04T08:57:43;2.73;;;1.90;;
13439;SDS011;6792;57.698;11.946;2023-12-04T09:00:13;2.33;;;1.80;;
13439;SDS011;6792;57.698;11.946;2023-12-04T09:02:43;2.80;;;2.10;;
13439;SDS011;6792;57.698;11.946;2023-12-04T09:05:12;2.03;;;1.83;;
13439;SDS011;6792;57.698;11.946;2023-12-04T09:07:41;2.60;;;1.97;;
13439;SDS011;6792;57.698;11.946;2023-12-04T09:10:10;2.37;;;1.67;;
13439;SDS011;6792;57.698;11.946;2023-12-04T09:12:39;2.60;;;1.50;;
13439;SDS011;6792;57.698;11.946;2023-12-04T09:15:09;2.07;;;1.87;;
13439;SDS011;6792;57.698;11.946;2023-12-04T09:17:38;2.60;;;1.73;;
13439;SDS011;6792;57.698;11.946;2023-12-04T09:20:07;2.57;;;1.80;;
13439;SDS011;6792;57.698;11.946;2023-12-04T09:22:37;1.57;;;1.40;;
13439;SDS011;6792;57.698;11.946;2023-12-04T09:25:13;3.10;;;2.13;;
13439;SDS011;6792;57.698;11.946;2023-12-04T09:27:53;3.40;;;1.83;;
13439;SDS011;6792;57.698;11.946;2023-12-04T09:30:22;1.97;;;1.70;;
13439;SDS011;6792;57.698;11.946;2023-12-04T09:32:53;4.07;;;2.13;;
13439;SDS011;6792;57.698;11.946;2023-12-04T09:35:22;2.07;;;1.77;;
13439;SDS011;6792;57.698;11.946;2023-12-04T09:37:54;2.50;;;1.77;;
13439;SDS011;6792;57.698;11.946;2023-12-04T09:40:24;1.93;;;1.40;;
13439;SDS011;6792;57.698;11.946;2023-12-04T09:42:52;3.27;;;2.00;;
13439;SDS011;6792;57.698;11.946;2023-12-04T09:45:22;2.17;;;1.67;;
13439;SDS011;6792;57.698;11.946;2023-12-04T09:47:52;2.00;;;1.50;;
13439;SDS011;6792;57.698;11.946;2023-12-04T09:50:22;5.37;;;2.30;;
13439;SDS011;6792;57.698;11.946;2023-12-04T09:52:51;1.40;;;1.30;;
13439;SDS011;6792;57.698;11.946;2023-12-04T09:55:21;4.20;;;1.93;;
13439;SDS011;6792;57.698;11.946;2023-12-04T09:57:52;1.80;;;1.37;;
13439;SDS011;6792;57.698;11.946;2023-12-04T10:00:24;1.67;;;1.33;;
13439;SDS011;6792;57.698;11.946;2023-12-04T10:02:54;1.40;;;1.30;;
13439;SDS011;6792;57.698;11.946;2023-12-04T10:05:24;1.67;;;1.37;;
13439;SDS011;6792;57.698;11.946;2023-12-04T10:07:52;3.53;;;1.90;;
13439;SDS011;6792;57.698;11.946;2023-12-04T10:10:21;1.83;;;1.40;;
13439;SDS011;6792;57.698;11.946;2023-12-04T10:12:55;2.27;;;1.57;;
13439;SDS011;6792;57.698;11.946;2023-12-04T10:15:24;2.77;;;1.40;;
13439;SDS011;6792;57.698;11.946;2023-12-04T10:17:54;1.30;;;1.20;;
13439;SDS011;6792;57.698;11.946;2023-12-04T10:20:23;2.10;;;1.27;;
13439;SDS011;6792;57.698;11.946;2023-12-04T10:22:53;2.67;;;1.67;;
13439;SDS011;6792;57.698;11.946;2023-12-04T10:25:25;1.63;;;1.40;;
13439;SDS011;6792;57.698;11.946;2023-12-04T10:27:55;1.57;;;1.43;;
13439;SDS011;6792;57.698;11.946;2023-12-04T10:30:35;2.03;;;1.50;;
13439;SDS011;6792;57.698;11.946;2023-12-04T10:33:04;1.80;;;1.20;;
13439;SDS011;6792;57.698;11.946;2023-12-04T10:35:34;1.77;;;1.20;;
13439;SDS011;6792;57.698;11.946;2023-12-04T10:38:04;2.90;;;1.30;;
13439;SDS011;6792;57.698;11.946;2023-12-04T10:40:34;2.40;;;1.40;;
13439;SDS011;6792;57.698;11.946;2023-12-04T10:43:11;1.70;;;1.20;;
13439;SDS011;6792;57.698;11.946;2023-12-04T10:45:43;1.43;;;1.30;;
13439;SDS011;6792;57.698;11.946;2023-12-04T10:48:14;1.63;;;1.53;;
13439;SDS011;6792;57.698;11.946;2023-12-04T10:50:44;1.43;;;1.20;;
13439;SDS011;6792;57.698;11.946;2023-12-04T10:53:14;1.80;;;1.30;;
13439;SDS011;6792;57.698;11.946;2023-12-04T10:55:44;1.77;;;1.30;;
13439;SDS011;6792;57.698;11.946;2023-12-04T10:58:15;1.63;;;1.30;;
13439;SDS011;6792;57.698;11.946;2023-12-04T11:00:44;4.20;;;1.30;;
13439;SDS011;6792;57.698;11.946;2023-12-04T11:03:18;3.27;;;1.30;;
13439;SDS011;6792;57.698;11.946;2023-12-04T11:05:49;1.20;;;1.10;;
13439;SDS011;6792;57.698;11.946;2023-12-04T11:08:21;1.40;;;1.30;;
13439;SDS011;6792;57.698;11.946;2023-12-04T11:10:54;1.60;;;1.30;;
13439;SDS011;6792;57.698;11.946;2023-12-04T11:13:26;1.37;;;1.13;;
13439;SDS011;6792;57.698;11.946;2023-12-04T11:15:56;1.57;;;1.40;;
13439;SDS011;6792;57.698;11.946;2023-12-04T11:18:31;1.93;;;1.60;;
13439;SDS011;6792;57.698;11.946;2023-12-04T11:21:02;3.13;;;1.50;;
13439;SDS011;6792;57.698;11.946;2023-12-04T11:23:33;2.90;;;1.73;;
13439;SDS011;6792;57.698;11.946;2023-12-04T11:26:04;2.67;;;1.73;;
13439;SDS011;6792;57.698;11.946;2023-12-04T11:28:35;1.87;;;1.50;;
13439;SDS011;6792;57.698;11.946;2023-12-04T11:31:06;2.43;;;1.40;;
13439;SDS011;6792;57.698;11.946;2023-12-04T11:33:36;4.57;;;1.63;;
13439;SDS011;6792;57.698;11.946;2023-12-04T11:36:09;2.23;;;1.47;;
13439;SDS011;6792;57.698;11.946;2023-12-04T11:38:44;2.43;;;1.63;;
13439;SDS011;6792;57.698;11.946;2023-12-04T11:41:17;2.33;;;1.53;;
13439;SDS011;6792;57.698;11.946;2023-12-04T11:43:48;3.37;;;1.63;;
13439;SDS011;6792;57.698;11.946;2023-12-04T11:46:19;2.47;;;1.73;;
13439;SDS011;6792;57.698;11.946;2023-12-04T11:48:50;2.23;;;1.80;;
13439;SDS011;6792;57.698;11.946;2023-12-04T11:51:45;3.23;;;1.87;;
13439;SDS011;6792;57.698;11.946;2023-12-04T11:54:17;4.53;;;2.00;;
13439;SDS011;6792;57.698;11.946;2023-12-04T11:56:59;3.17;;;1.90;;
13439;SDS011;6792;57.698;11.946;2023-12-04T11:59:30;2.27;;;1.53;;
13439;SDS011;6792;57.698;11.946;2023-12-04T12:02:09;3.10;;;2.10;;
13439;SDS011;6792;57.698;11.946;2023-12-04T12:04:46;3.37;;;1.70;;
13439;SDS011;6792;57.698;11.946;2023-12-04T12:07:15;5.60;;;2.17;;
13439;SDS011;6792;57.698;11.946;2023-12-04T12:09:45;3.07;;;1.90;;
13439;SDS011;6792;57.698;11.946;2023-12-04T12:12:14;3.27;;;2.17;;
13439;SDS011;6792;57.698;11.946;2023-12-04T12:14:44;4.43;;;2.10;;
13439;SDS011;6792;57.698;11.946;2023-12-04T12:17:14;2.83;;;2.00;;
13439;SDS011;6792;57.698;11.946;2023-12-04T12:19:43;2.50;;;1.90;;
13439;SDS011;6792;57.698;11.946;2023-12-04T12:22:12;3.60;;;2.30;;
13439;SDS011;6792;57.698;11.946;2023-12-04T12:24:41;4.10;;;2.40;;
13439;SDS011;6792;57.698;11.946;2023-12-04T12:27:10;4.00;;;2.60;;
13439;SDS011;6792;57.698;11.946;2023-12-04T12:29:39;3.33;;;2.10;;
13439;SDS011;6792;57.698;11.946;2023-12-04T12:32:09;3.93;;;2.37;;
13439;SDS011;6792;57.698;11.946;2023-12-04T12:34:38;4.00;;;2.40;;
13439;SDS011;6792;57.698;11.946;2023-12-04T12:37:08;3.67;;;2.80;;
13439;SDS011;6792;57.698;11.946;2023-12-04T12:39:38;5.87;;;2.90;;
13439;SDS011;6792;57.698;11.946;2023-12-04T12:42:08;8.47;;;3.27;;
13439;SDS011;6792;57.698;11.946;2023-12-04T12:44:38;6.07;;;2.67;;
13439;SDS011;6792;57.698;11.946;2023-12-04T12:47:09;4.70;;;2.67;;
13439;SDS011;6792;57.698;11.946;2023-12-04T12:49:38;4.87;;;2.97;;
13439;SDS011;6792;57.698;11.946;2023-12-04T12:52:07;4.30;;;2.87;;
13439;SDS011;6792;57.698;11.946;2023-12-04T12:54:37;5.83;;;3.00;;
13439;SDS011;6792;57.698;11.946;2023-12-04T12:57:07;5.13;;;2.93;;
13439;SDS011;6792;57.698;11.946;2023-12-04T12:59:38;4.80;;;2.73;;
13439;SDS011;6792;57.698;11.946;2023-12-04T13:02:08;6.13;;;3.53;;
13439;SDS011;6792;57.698;11.946;2023-12-04T13:04:37;6.80;;;3.40;;
13439;SDS011;6792;57.698;11.946;2023-12-04T13:07:08;5.13;;;3.03;;
13439;SDS011;6792;57.698;11.946;2023-12-04T13:09:38;5.43;;;3.53;;
13439;SDS011;6792;57.698;11.946;2023-12-04T13:12:07;6.23;;;3.40;;
13439;SDS011;6792;57.698;11.946;2023-12-04T13:14:37;5.27;;;3.10;;
13439;SDS011;6792;57.698;11.946;2023-12-04T13:17:07;5.57;;;3.23;;
13439;SDS011;6792;57.698;11.946;2023-12-04T13:19:36;7.37;;;3.30;;
13439;SDS011;6792;57.698;11.946;2023-12-04T13:22:05;7.53;;;3.70;;
13439;SDS011;6792;57.698;11.946;2023-12-04T13:24:34;5.57;;;3.47;;
13439;SDS011;6792;57.698;11.946;2023-12-04T13:27:03;6.20;;;3.83;;
13439;SDS011;6792;57.698;11.946;2023-12-04T13:29:32;6.63;;;3.50;;
13439;SDS011;6792;57.698;11.946;2023-12-04T13:32:01;6.23;;;3.40;;
13439;SDS011;6792;57.698;11.946;2023-12-04T13:34:31;6.57;;;3.53;;
13439;SDS011;6792;57.698;11.946;2023-12-04T13:37:01;5.83;;;3.70;;
13439;SDS011;6792;57.698;11.946;2023-12-04T13:39:31;5.13;;;3.60;;
13439;SDS011;6792;57.698;11.946;2023-12-04T13:42:05;6.20;;;4.23;;
13439;SDS011;6792;57.698;11.946;2023-12-04T13:44:52;6.20;;;3.90;;
13439;SDS011;6792;57.698;11.946;2023-12-04T13:47:21;6.00;;;3.70;;
13439;SDS011;6792;57.698;11.946;2023-12-04T13:49:50;6.73;;;4.20;;
13439;SDS011;6792;57.698;11.946;2023-12-04T13:52:19;6.37;;;4.37;;
13439;SDS011;6792;57.698;11.946;2023-12-04T13:54:49;8.27;;;4.47;;
13439;SDS011;6792;57.698;11.946;2023-12-04T13:57:20;8.20;;;4.20;;
13439;SDS011;6792;57.698;11.946;2023-12-04T13:59:51;8.13;;;3.70;;
13439;SDS011;6792;57.698;11.946;2023-12-04T14:02:20;9.03;;;4.67;;
13439;SDS011;6792;57.698;11.946;2023-12-04T14:04:49;7.63;;;4.47;;
13439;SDS011;6792;57.698;11.946;2023-12-04T14:07:18;9.00;;;4.57;;
13439;SDS011;6792;57.698;11.946;2023-12-04T14:09:48;6.67;;;4.20;;
13439;SDS011;6792;57.698;11.946;2023-12-04T14:12:17;7.03;;;4.43;;
13439;SDS011;6792;57.698;11.946;2023-12-04T14:14:46;10.43;;;5.20;;
13439;SDS011;6792;57.698;11.946;2023-12-04T14:17:16;7.27;;;4.30;;
13439;SDS011;6792;57.698;11.946;2023-12-04T14:19:46;7.40;;;4.63;;
13439;SDS011;6792;57.698;11.946;2023-12-04T14:22:14;8.60;;;4.03;;
13439;SDS011;6792;57.698;11.946;2023-12-04T14:24:43;6.43;;;4.27;;
13439;SDS011;6792;57.698;11.946;2023-12-04T14:27:13;9.27;;;4.87;;
13439;SDS011;6792;57.698;11.946;2023-12-04T14:29:42;6.80;;;4.27;;
13439;SDS011;6792;57.698;11.946;2023-12-04T14:32:11;9.97;;;4.50;;
13439;SDS011;6792;57.698;11.946;2023-12-04T14:34:41;9.17;;;4.30;;
13439;SDS011;6792;57.698;11.946;2023-12-04T14:37:10;8.73;;;4.70;;
13439;SDS011;6792;57.698;11.946;2023-12-04T14:39:40;11.40;;;4.93;;
13439;SDS011;6792;57.698;11.946;2023-12-04T14:42:09;8.50;;;5.00;;
13439;SDS011;6792;57.698;11.946;2023-12-04T14:44:38;9.27;;;5.00;;
13439;SDS011;6792;57.698;11.946;2023-12-04T14:47:07;7.90;;;4.90;;
13439;SDS011;6792;57.698;11.946;2023-12-04T14:49:38;9.77;;;5.20;;
13439;SDS011;6792;57.698;11.946;2023-12-04T14:52:07;9.87;;;5.13;;
13439;SDS011;6792;57.698;11.946;2023-12-04T14:54:37;10.63;;;5.50;;
13439;SDS011;6792;57.698;11.946;2023-12-04T14:57:15;8.63;;;4.83;;
13439;SDS011;6792;57.698;11.946;2023-12-04T15:00:11;10.70;;;5.57;;
13439;SDS011;6792;57.698;11.946;2023-12-04T15:03:09;12.97;;;6.03;;
13439;SDS011;6792;57.698;11.946;2023-12-04T15:06:12;12.27;;;5.90;;